KDMA/DMA METAR and TAF weather

Enter ICAO airport designator
Station Type Date Time Source
KDMA METAR 2021/09/23 16:56 UTC NOAA

KDMA 231656Z 20018G24KT 10SM SCT070 BKN085 BKN110 24/14 A3010 RMK SLP154 T02380139 $


Station Type Date Time Source
KDMA Decoded METAR 2021/09/23 16:56 UTC NOAA

Davis-Monthan Air Force Base, AZ, United States (KDMA) 32-10N 110-53W
Sep 23, 2021 - 12:56 PM EDT / 2021.09.23 1656 UTC
Wind: from the SSW (200 degrees) at 21 MPH (18 KT) gusting to 28 MPH (24 KT):0
Visibility: 10 mile(s):0
Sky conditions: mostly cloudy
Temperature: 74.8 F (23.8 C)
Dew Point: 57.0 F (13.9 C)
Relative Humidity: 53%
Pressure (altimeter): 30.1 in. Hg (1019 hPa)
ob: KDMA 231656Z 20018G24KT 10SM SCT070 BKN085 BKN110 24/14 A3010 RMK SLP154 T02380139
cycle: 17

Station Type Date Time Source
KDMA TAF 2021/09/23 14:06 UTC NOAA

TAF TAF KDMA 231400Z 2314/2420 17009KT 9999 SCT100 BKN150 QNH3003INS
BECMG 2316/2317 17009KT 9999 VCSH SCT100 BKN150 QNH3000INS
BECMG 2320/2321 17009KT 9999 NSW SCT100 BKN150 QNH2994INS
BECMG 2400/2401 14009KT 9999 SCT080 BKN130 QNH2995INS TX33/2321Z TN19/2411Z

Example: see airport list